Time;durP1;ratioP1;P1;durP2;ratioP2;P2;SDS_P1;SDS_P2;PMS_P1;PMS_P2;Temp;Humidity;BMP_temperature;BMP_pressure;BME280_temperature;BME280_humidity;BME280_pressure;Samples;Min_cycle;Max_cycle;Signal;HPM_P1;HPM_P2
2021/03/01 00:00:30;;;;;;;19.00;13.70;;;1.20;96.30;;;;;;4972964;28;20175;-72
2021/03/01 00:02:56;;;;;;;16.80;13.00;;;1.30;96.30;;;;;;4972654;28;20199;-71
2021/03/01 00:05:22;;;;;;;19.70;13.37;;;1.30;96.30;;;;;;4972812;28;20464;-72
2021/03/01 00:07:48;;;;;;;19.67;15.00;;;1.30;96.30;;;;;;4972351;28;20170;-71
2021/03/01 00:10:14;;;;;;;25.03;14.77;;;1.30;96.30;;;;;;4972884;28;20413;-71
2021/03/01 00:12:41;;;;;;;16.77;13.10;;;1.30;96.30;;;;;;4974244;28;20520;-71
2021/03/01 00:15:09;;;;;;;20.83;14.57;;;1.40;96.30;;;;;;4976448;28;20409;-71
2021/03/01 00:17:35;;;;;;;17.97;12.70;;;1.40;96.30;;;;;;4975875;28;20519;-71
2021/03/01 00:20:02;;;;;;;21.80;14.97;;;1.40;96.30;;;;;;4976481;28;20410;-71
2021/03/01 00:22:28;;;;;;;18.27;13.13;;;1.50;96.30;;;;;;4976344;28;20194;-72
2021/03/01 00:24:53;;;;;;;17.17;12.20;;;1.50;96.30;;;;;;4976154;28;20453;-70
2021/03/01 00:27:19;;;;;;;16.10;13.07;;;1.50;96.30;;;;;;4975549;28;20179;-71
2021/03/01 00:29:44;;;;;;;20.33;13.50;;;1.60;96.30;;;;;;4976274;28;20544;-71
2021/03/01 00:34:38;;;;;;;20.87;12.70;;;1.70;96.30;;;;;;4998629;23;20238;-73
2021/03/01 00:37:04;;;;;;;22.93;13.97;;;1.70;96.30;;;;;;4975418;28;20412;-73
2021/03/01 00:39:30;;;;;;;20.53;13.90;;;1.60;96.30;;;;;;4975896;28;20174;-73
2021/03/01 00:41:55;;;;;;;18.43;12.70;;;1.60;96.30;;;;;;4976099;28;20413;-73
2021/03/01 00:44:21;;;;;;;19.00;13.30;;;1.60;96.30;;;;;;4975848;28;20682;-73
2021/03/01 00:46:46;;;;;;;25.23;14.40;;;1.60;96.30;;;;;;4975927;28;20201;-73
2021/03/01 00:49:12;;;;;;;19.00;12.03;;;1.60;96.30;;;;;;4975049;28;20232;-73
2021/03/01 00:51:37;;;;;;;16.87;13.67;;;1.60;96.30;;;;;;4975853;28;20175;-74
2021/03/01 00:54:04;;;;;;;20.10;12.97;;;1.60;96.30;;;;;;4975735;28;20272;-73
2021/03/01 00:56:29;;;;;;;17.20;13.40;;;1.60;96.30;;;;;;4975565;28;20536;-74
2021/03/01 00:58:54;;;;;;;21.93;12.83;;;1.60;96.30;;;;;;4975126;28;20417;-73
2021/03/01 05:02:09;;;;;;;21.90;12.00;;;1.80;96.30;;;;;;5210085;23;20492;-72
2021/03/01 05:04:36;;;;;;;22.40;11.87;;;1.80;96.30;;;;;;4994996;28;20464;-70
2021/03/01 05:07:04;;;;;;;17.10;11.70;;;1.80;96.30;;;;;;4994439;28;20783;-70
2021/03/01 05:09:31;;;;;;;17.83;11.13;;;1.80;96.30;;;;;;4994942;28;20785;-70
2021/03/01 05:11:56;;;;;;;15.90;10.63;;;1.80;96.30;;;;;;4994848;28;20960;-70
2021/03/01 05:14:22;;;;;;;15.67;10.60;;;1.80;96.30;;;;;;4995561;28;20417;-70
2021/03/01 05:16:47;;;;;;;20.63;11.40;;;1.80;96.30;;;;;;4994901;28;20260;-70
2021/03/01 05:19:13;;;;;;;19.40;11.97;;;1.80;96.30;;;;;;4992950;28;20189;-70
2021/03/01 05:21:38;;;;;;;17.47;12.20;;;1.80;96.30;;;;;;4993832;28;20209;-70
2021/03/01 05:24:04;;;;;;;21.13;13.33;;;1.70;96.30;;;;;;4994438;28;20213;-70
2021/03/01 05:26:30;;;;;;;25.37;13.90;;;1.80;96.30;;;;;;4994669;28;20257;-70
2021/03/01 05:28:57;;;;;;;26.10;16.37;;;1.80;96.30;;;;;;4994048;28;20207;-70
2021/03/01 05:31:24;;;;;;;30.60;16.43;;;1.80;96.30;;;;;;4994696;28;20744;-70
2021/03/01 05:33:49;;;;;;;20.40;12.80;;;1.80;96.30;;;;;;4993092;28;20433;-70
2021/03/01 05:36:15;;;;;;;20.40;11.97;;;1.90;96.30;;;;;;4992691;28;20440;-70
2021/03/01 05:38:41;;;;;;;18.40;10.60;;;1.90;96.30;;;;;;5001127;28;20196;-70
2021/03/01 05:41:08;;;;;;;19.93;10.30;;;1.90;96.30;;;;;;5007346;28;20197;-70
2021/03/01 05:43:35;;;;;;;20.67;13.30;;;1.80;96.30;;;;;;5013699;28;20240;-70
2021/03/01 05:46:01;;;;;;;13.60;9.10;;;1.80;96.30;;;;;;5013930;28;20776;-70
2021/03/01 05:48:28;;;;;;;14.53;8.37;;;1.70;96.30;;;;;;5013234;28;20488;-70
2021/03/01 05:50:59;;;;;;;14.10;8.73;;;1.80;96.30;;;;;;5012527;28;20200;-71
2021/03/01 05:53:30;;;;;;;13.27;8.20;;;1.80;96.30;;;;;;5013287;28;20915;-71
2021/03/01 05:56:01;;;;;;;16.93;8.50;;;1.70;96.30;;;;;;4996006;28;20518;-71
2021/03/01 05:58:27;;;;;;;14.27;9.40;;;1.80;96.30;;;;;;5013156;28;20404;-71
2021/03/01 06:01:06;;;;;;;14.57;9.27;;;1.70;96.30;;;;;;5013387;28;20464;-71
2021/03/01 06:03:33;;;;;;;12.63;8.30;;;1.80;96.30;;;;;;5013505;28;20542;-72
2021/03/01 06:05:59;;;;;;;16.90;8.70;;;1.80;96.30;;;;;;5013607;28;20415;-71
2021/03/01 06:08:25;;;;;;;25.83;9.70;;;1.80;96.30;;;;;;4998222;28;20418;-71
2021/03/01 06:11:04;;;;;;;19.70;9.33;;;1.80;96.30;;;;;;4972265;28;20249;-71
2021/03/01 06:13:31;;;;;;;14.77;9.40;;;1.80;96.30;;;;;;4981431;28;20424;-72
2021/03/01 06:15:58;;;;;;;13.93;9.40;;;1.80;96.30;;;;;;4993714;28;20432;-70
2021/03/01 06:18:26;;;;;;;15.37;9.43;;;1.80;96.30;;;;;;4992989;28;20492;-70
2021/03/01 06:20:53;;;;;;;17.03;11.60;;;1.90;96.30;;;;;;4993656;28;20437;-71
2021/03/01 06:23:30;;;;;;;15.30;9.07;;;1.90;96.30;;;;;;4992670;28;20857;-71
2021/03/01 06:26:19;;;;;;;14.73;9.43;;;1.90;96.30;;;;;;4993480;28;20409;-70
2021/03/01 06:28:46;;;;;;;14.03;8.73;;;1.80;96.30;;;;;;4992761;28;20393;-71
2021/03/01 06:31:44;;;;;;;13.23;8.50;;;1.90;96.30;;;;;;4993382;28;20535;-70
2021/03/01 06:34:16;;;;;;;14.90;9.10;;;1.80;96.30;;;;;;4993455;28;20409;-70
2021/03/01 06:37:01;;;;;;;14.53;9.37;;;1.80;96.30;;;;;;4993293;28;20417;-70
2021/03/01 06:39:48;;;;;;;13.83;8.93;;;1.90;96.30;;;;;;4993280;28;20397;-70
2021/03/01 06:42:17;;;;;;;11.87;7.77;;;1.90;96.30;;;;;;4991851;28;20455;-70
2021/03/01 06:45:05;;;;;;;13.20;9.17;;;1.90;96.30;;;;;;4993187;28;20466;-71
2021/03/01 06:47:47;;;;;;;13.57;8.17;;;1.90;96.30;;;;;;4984694;28;20487;-70
2021/03/01 06:50:23;;;;;;;16.77;8.70;;;1.90;96.30;;;;;;4993139;28;20516;-70
2021/03/01 06:52:48;;;;;;;18.03;9.40;;;1.90;96.30;;;;;;4992977;28;20416;-70
2021/03/01 06:55:14;;;;;;;20.80;10.10;;;2.00;96.30;;;;;;4993133;28;20421;-70
2021/03/01 06:57:40;;;;;;;14.80;9.80;;;2.00;96.30;;;;;;4991295;28;20268;-71
2021/03/01 07:00:06;;;;;;;15.50;10.00;;;2.00;96.30;;;;;;4992131;28;20936;-71
2021/03/01 07:02:36;;;;;;;12.83;7.80;;;2.00;96.30;;;;;;4992323;28;20220;-71
2021/03/01 07:05:02;;;;;;;13.77;8.50;;;2.00;96.30;;;;;;4992729;28;20461;-70
2021/03/01 07:07:35;;;;;;;11.67;8.00;;;2.00;96.30;;;;;;4991791;28;20790;-71
2021/03/01 07:10:01;;;;;;;13.80;9.10;;;2.20;96.30;;;;;;4992910;28;20193;-71
2021/03/01 07:12:37;;;;;;;12.03;9.10;;;2.20;96.30;;;;;;4992588;28;20940;-71
2021/03/01 07:15:06;;;;;;;13.27;8.33;;;2.30;96.30;;;;;;4991670;28;20195;-70
2021/03/01 07:17:31;;;;;;;14.30;8.17;;;2.20;96.30;;;;;;5001160;28;20424;-71
2021/03/01 07:19:59;;;;;;;15.30;9.63;;;2.30;96.30;;;;;;5006713;28;20478;-70
2021/03/01 07:22:25;;;;;;;16.27;9.00;;;2.20;96.30;;;;;;5007004;28;20447;-70
2021/03/01 07:24:53;;;;;;;13.77;8.77;;;2.20;96.30;;;;;;4993298;28;20460;-70
2021/03/01 07:27:20;;;;;;;12.90;9.07;;;2.20;96.30;;;;;;4991762;28;20181;-70
2021/03/01 07:29:49;;;;;;;12.57;8.57;;;2.30;96.30;;;;;;4991648;28;20475;-70
2021/03/01 07:32:20;;;;;;;14.63;8.33;;;2.40;96.30;;;;;;4992396;28;20940;-70
2021/03/01 07:34:45;;;;;;;13.57;9.10;;;2.50;96.30;;;;;;4991764;28;20767;-70
2021/03/01 07:37:12;;;;;;;10.57;7.73;;;2.50;96.30;;;;;;4999869;28;20432;-70
2021/03/01 07:39:38;;;;;;;13.73;9.40;;;2.70;96.30;;;;;;4992546;28;20332;-70
2021/03/01 07:42:10;;;;;;;13.73;8.97;;;2.80;96.30;;;;;;4992127;28;20975;-70
2021/03/01 07:44:38;;;;;;;14.03;9.57;;;2.60;96.30;;;;;;4992396;28;20824;-70
2021/03/01 07:47:05;;;;;;;15.67;9.10;;;2.50;96.30;;;;;;4991517;28;20416;-70
2021/03/01 07:49:42;;;;;;;14.43;9.17;;;2.50;96.30;;;;;;4992274;28;21015;-71
2021/03/01 07:52:28;;;;;;;16.70;10.57;;;2.60;96.30;;;;;;4992249;28;20432;-71
2021/03/01 07:54:57;;;;;;;12.90;9.00;;;2.70;96.30;;;;;;4980993;28;20435;-71
2021/03/01 07:57:28;;;;;;;16.40;9.53;;;2.90;96.30;;;;;;4991609;28;20428;-72
2021/03/01 07:59:56;;;;;;;16.97;9.60;;;2.90;96.30;;;;;;4991743;28;20428;-71
2021/03/01 08:02:25;;;;;;;16.00;10.17;;;2.90;96.30;;;;;;4991444;28;20480;-71
2021/03/01 08:04:52;;;;;;;14.93;9.40;;;3.10;96.30;;;;;;4992328;28;20462;-72
2021/03/01 08:07:17;;;;;;;17.67;9.23;;;3.10;96.30;;;;;;4992211;28;20428;-72
2021/03/01 08:09:51;;;;;;;13.20;9.80;;;3.10;96.30;;;;;;4992953;28;20405;-72
2021/03/01 08:12:29;;;;;;;12.90;9.70;;;3.10;96.30;;;;;;4992217;28;20197;-72
2021/03/01 08:15:06;;;;;;;12.87;9.03;;;3.10;96.30;;;;;;4991184;28;20840;-71
2021/03/01 08:17:39;;;;;;;12.60;9.17;;;3.20;96.30;;;;;;4997992;28;20427;-72
2021/03/01 08:20:04;;;;;;;14.57;9.00;;;3.20;96.30;;;;;;5011723;28;20415;-72
2021/03/01 08:22:30;;;;;;;12.47;8.97;;;3.50;96.30;;;;;;4993388;28;20448;-72
2021/03/01 08:24:57;;;;;;;14.30;9.50;;;3.60;96.30;;;;;;5002911;28;20262;-71
2021/03/01 08:27:25;;;;;;;13.00;8.53;;;3.70;96.30;;;;;;4995400;28;20646;-72
2021/03/01 08:30:16;;;;;;;13.07;8.40;;;3.80;96.30;;;;;;4990748;28;20496;-71
2021/03/01 08:32:41;;;;;;;13.43;8.67;;;3.90;96.30;;;;;;4991526;28;20424;-72
2021/03/01 08:35:23;;;;;;;10.80;7.60;;;3.90;96.30;;;;;;4995568;28;20499;-71
2021/03/01 08:37:49;;;;;;;12.80;7.33;;;3.90;96.30;;;;;;4994731;28;20243;-71
2021/03/01 08:40:22;;;;;;;12.70;8.73;;;4.10;96.30;;;;;;4994796;28;20814;-72
2021/03/01 08:43:00;;;;;;;14.20;8.33;;;4.20;96.30;;;;;;4995035;28;20182;-71
2021/03/01 08:45:43;;;;;;;14.50;9.30;;;4.20;96.30;;;;;;4995801;28;20759;-71
2021/03/01 08:48:20;;;;;;;11.60;8.47;;;4.00;96.30;;;;;;4994969;28;20780;-72
2021/03/01 08:50:51;;;;;;;13.17;8.50;;;3.90;96.30;;;;;;4995066;28;20435;-71
2021/03/01 08:53:27;;;;;;;12.80;8.80;;;3.80;96.30;;;;;;4995430;28;20503;-71
2021/03/01 08:55:54;;;;;;;12.83;9.47;;;4.10;96.30;;;;;;4995187;28;20416;-72
2021/03/01 08:58:20;;;;;;;14.90;11.00;;;4.30;96.30;;;;;;4994906;28;20409;-71
2021/03/01 09:00:49;;;;;;;14.13;10.63;;;4.40;96.30;;;;;;4994979;28;20824;-72
2021/03/01 09:03:25;;;;;;;13.90;11.73;;;4.30;96.30;;;;;;4995192;28;20409;-72
2021/03/01 09:05:52;;;;;;;14.00;10.63;;;4.40;96.30;;;;;;4994865;28;20416;-71
2021/03/01 09:08:26;;;;;;;16.00;11.10;;;4.30;96.30;;;;;;4994652;28;20427;-71
2021/03/01 09:10:52;;;;;;;15.63;11.60;;;4.40;96.30;;;;;;4994261;28;20869;-72
2021/03/01 09:13:20;;;;;;;19.77;11.70;;;4.30;96.30;;;;;;4994957;28;20405;-72
2021/03/01 09:15:46;;;;;;;15.10;9.70;;;4.00;96.30;;;;;;4993471;28;20260;-72
2021/03/01 09:18:12;;;;;;;15.10;11.00;;;4.30;96.30;;;;;;4994438;28;20401;-72
2021/03/01 09:20:55;;;;;;;16.47;11.97;;;4.30;96.30;;;;;;4994816;28;20520;-72
2021/03/01 09:23:51;;;;;;;12.87;9.70;;;5.40;96.30;;;;;;4994439;28;20460;-72
2021/03/01 09:26:26;;;;;;;14.73;12.20;;;6.80;96.30;;;;;;4984990;28;20791;-72
2021/03/01 09:29:13;;;;;;;13.90;12.20;;;7.10;96.30;;;;;;4994271;28;20461;-72
2021/03/01 09:31:41;;;;;;;15.63;11.33;;;6.80;96.30;;;;;;4994502;28;20515;-72
2021/03/01 09:34:07;;;;;;;16.53;12.60;;;6.90;96.30;;;;;;4994620;28;20440;-72
2021/03/01 09:36:33;;;;;;;15.03;12.53;;;7.80;96.30;;;;;;4994508;28;20701;-72
2021/03/01 09:39:00;;;;;;;14.90;12.63;;;7.40;96.30;;;;;;4993999;28;20417;-72
2021/03/01 09:41:36;;;;;;;15.67;13.00;;;7.70;96.30;;;;;;4994275;28;20460;-72
2021/03/01 09:44:03;;;;;;;18.27;12.73;;;7.70;96.30;;;;;;4993829;28;20936;-72
2021/03/01 09:46:29;;;;;;;11.90;9.33;;;7.50;96.30;;;;;;4994391;28;20511;-72
2021/03/01 09:48:58;;;;;;;12.70;11.23;;;8.00;96.30;;;;;;4993950;28;20560;-72
2021/03/01 09:51:24;;;;;;;17.23;12.50;;;8.00;96.30;;;;;;4994086;28;20202;-72
2021/03/01 09:53:51;;;;;;;17.37;12.90;;;8.00;96.30;;;;;;4994235;28;20421;-72
2021/03/01 09:56:17;;;;;;;14.87;12.57;;;8.80;96.30;;;;;;4994004;28;20443;-72
2021/03/01 09:58:44;;;;;;;11.83;10.53;;;9.30;95.70;;;;;;4993500;28;20499;-72
2021/03/01 10:01:17;;;;;;;13.90;10.23;;;9.90;93.90;;;;;;4992810;28;20221;-72
2021/03/01 10:03:42;;;;;;;13.70;10.77;;;9.60;94.30;;;;;;4992909;28;20559;-72
2021/03/01 10:06:10;;;;;;;14.20;11.70;;;10.20;93.00;;;;;;4993692;28;20524;-72
2021/03/01 10:08:37;;;;;;;12.20;9.63;;;10.20;92.20;;;;;;4993595;28;20197;-72
2021/03/01 10:11:03;;;;;;;10.43;9.33;;;10.30;91.20;;;;;;4993872;28;20937;-72
2021/03/01 10:13:32;;;;;;;10.37;9.27;;;9.80;92.30;;;;;;4993921;28;20427;-72
2021/03/01 10:15:59;;;;;;;11.20;9.30;;;9.80;92.20;;;;;;4994785;28;20429;-72
2021/03/01 10:18:30;;;;;;;10.13;9.03;;;9.80;94.90;;;;;;4993835;28;20516;-72
2021/03/01 10:21:02;;;;;;;14.70;10.17;;;10.20;92.00;;;;;;5000881;28;20451;-72
2021/03/01 10:23:39;;;;;;;16.07;9.97;;;10.20;91.40;;;;;;4992252;28;20449;-72
2021/03/01 10:26:19;;;;;;;16.40;9.00;;;10.60;93.00;;;;;;4991999;28;20416;-72
2021/03/01 10:29:05;;;;;;;9.33;7.90;;;9.30;94.20;;;;;;4991117;28;20417;-72
2021/03/01 10:31:38;;;;;;;11.23;8.30;;;9.80;93.90;;;;;;4992328;28;21015;-72
2021/03/01 10:34:11;;;;;;;11.60;8.27;;;10.10;92.40;;;;;;4993141;28;20432;-72
2021/03/01 10:36:40;;;;;;;10.47;8.07;;;10.40;93.20;;;;;;4992952;28;20744;-72
2021/03/01 10:39:15;;;;;;;10.50;8.10;;;11.00;89.80;;;;;;4992628;28;20413;-72
2021/03/01 10:41:44;;;;;;;11.07;8.10;;;10.50;89.70;;;;;;4992424;28;20459;-72
2021/03/01 10:44:10;;;;;;;10.73;8.40;;;10.70;90.80;;;;;;4992687;28;20967;-72
2021/03/01 10:46:43;;;;;;;10.60;8.17;;;10.10;92.10;;;;;;4992907;28;20441;-72
2021/03/01 10:49:20;;;;;;;11.63;7.60;;;10.20;92.10;;;;;;4992331;28;20421;-72
2021/03/01 10:51:46;;;;;;;11.67;9.13;;;10.20;92.70;;;;;;4992523;28;20444;-72
2021/03/01 10:54:12;;;;;;;12.20;8.60;;;10.60;92.30;;;;;;4992524;28;21011;-72
2021/03/01 10:56:38;;;;;;;14.53;7.77;;;10.40;91.10;;;;;;4992279;28;20500;-71
2021/03/01 10:59:04;;;;;;;10.43;8.40;;;10.30;92.80;;;;;;4991610;28;20272;-72
2021/03/01 11:01:39;;;;;;;10.53;7.97;;;10.70;90.70;;;;;;4988864;28;20693;-72
2021/03/01 11:04:05;;;;;;;10.47;7.60;;;10.60;93.00;;;;;;4986238;28;20451;-72
2021/03/01 11:06:31;;;;;;;11.93;7.93;;;10.50;93.70;;;;;;4993063;28;20405;-72
2021/03/01 11:08:56;;;;;;;11.90;8.73;;;10.60;92.20;;;;;;4992187;28;20447;-72
2021/03/01 11:11:22;;;;;;;10.33;8.50;;;9.90;95.60;;;;;;4992786;28;20268;-72
2021/03/01 11:13:48;;;;;;;11.43;9.20;;;9.90;96.30;;;;;;4992614;28;20232;-72
2021/03/01 11:16:14;;;;;;;12.73;9.33;;;10.30;96.30;;;;;;4992865;28;20857;-72
2021/03/01 11:18:40;;;;;;;11.60;8.40;;;10.50;96.00;;;;;;4992165;28;20573;-72
2021/03/01 11:21:06;;;;;;;16.77;7.67;;;10.90;94.90;;;;;;4992596;28;20208;-72
2021/03/01 11:23:31;;;;;;;12.13;8.03;;;10.40;92.50;;;;;;4992678;28;20538;-72
2021/03/01 11:25:57;;;;;;;13.07;8.60;;;10.30;93.50;;;;;;4997733;28;20228;-72
2021/03/01 11:28:22;;;;;;;10.23;7.53;;;10.30;93.90;;;;;;4992115;28;20181;-72
2021/03/01 11:30:48;;;;;;;12.00;8.00;;;10.40;94.60;;;;;;4992135;28;20560;-72
2021/03/01 11:33:14;;;;;;;9.90;8.20;;;10.00;94.10;;;;;;4988290;28;20269;-72
2021/03/01 11:35:39;;;;;;;10.80;8.40;;;9.60;95.40;;;;;;4992447;28;20597;-72
2021/03/01 11:38:05;;;;;;;10.53;7.80;;;9.50;96.30;;;;;;4991924;28;20174;-72
2021/03/01 11:40:30;;;;;;;11.53;7.43;;;9.80;96.30;;;;;;4991952;28;20281;-72
2021/03/01 11:42:57;;;;;;;12.00;8.40;;;9.70;96.30;;;;;;4991517;28;20197;-72
2021/03/01 11:45:22;;;;;;;9.50;7.80;;;9.90;95.60;;;;;;4991794;28;20252;-72
2021/03/01 11:47:48;;;;;;;9.77;6.90;;;10.20;96.30;;;;;;4991435;28;20433;-72
2021/03/01 11:50:13;;;;;;;11.47;7.77;;;10.30;96.30;;;;;;4992430;28;20182;-72
2021/03/01 11:52:39;;;;;;;8.73;7.33;;;10.10;95.30;;;;;;4991047;28;20184;-72
2021/03/01 11:55:05;;;;;;;11.00;7.07;;;10.20;96.30;;;;;;4992289;28;20178;-72
2021/03/01 11:57:30;;;;;;;8.93;6.47;;;10.20;95.10;;;;;;4978187;28;20750;-72
2021/03/01 11:59:56;;;;;;;9.13;6.80;;;10.00;95.80;;;;;;4992538;28;20240;-72
2021/03/01 12:02:21;;;;;;;9.53;6.87;;;10.10;96.30;;;;;;4992095;28;20283;-72
2021/03/01 12:04:47;;;;;;;11.10;7.93;;;10.20;96.30;;;;;;4992242;28;20205;-72
2021/03/01 12:07:12;;;;;;;11.23;8.07;;;10.10;94.70;;;;;;4990924;28;20186;-72
2021/03/01 12:09:38;;;;;;;10.27;7.53;;;10.10;96.30;;;;;;4991320;28;20178;-72
2021/03/01 12:12:03;;;;;;;11.20;7.20;;;10.00;96.30;;;;;;4995980;28;20284;-72
2021/03/01 12:14:29;;;;;;;12.13;9.20;;;10.10;96.30;;;;;;4995979;28;20181;-72
2021/03/01 12:16:55;;;;;;;11.10;7.50;;;10.20;96.30;;;;;;4998500;28;20209;-72
2021/03/01 12:19:20;;;;;;;11.00;8.27;;;10.10;96.30;;;;;;4996903;28;20206;-72
2021/03/01 12:21:46;;;;;;;8.77;7.50;;;10.10;96.30;;;;;;4995809;28;20193;-72
2021/03/01 12:24:12;;;;;;;8.93;7.27;;;10.20;96.30;;;;;;4995605;28;20267;-72
2021/03/01 12:26:38;;;;;;;10.20;7.33;;;10.00;96.30;;;;;;4995663;28;20170;-72
2021/03/01 12:29:04;;;;;;;10.30;7.47;;;10.30;96.30;;;;;;4994306;28;20672;-72
2021/03/01 12:31:29;;;;;;;13.60;8.20;;;10.60;96.30;;;;;;4995431;28;20428;-72
2021/03/01 12:33:55;;;;;;;12.03;8.13;;;10.40;96.20;;;;;;4995076;28;20188;-72
2021/03/01 12:36:20;;;;;;;11.00;8.07;;;10.40;96.30;;;;;;4995217;28;20181;-72
2021/03/01 12:38:46;;;;;;;11.70;8.50;;;10.40;96.30;;;;;;4994758;28;20186;-72
2021/03/01 12:41:13;;;;;;;11.73;8.03;;;10.60;96.30;;;;;;4993203;28;20568;-72
2021/03/01 12:43:39;;;;;;;10.70;8.20;;;10.60;94.90;;;;;;4995102;28;20205;-72
2021/03/01 12:46:04;;;;;;;8.33;7.43;;;10.50;96.30;;;;;;4995336;28;20425;-72
2021/03/01 12:48:30;;;;;;;9.93;7.70;;;10.60;96.10;;;;;;4994261;28;20177;-72
2021/03/01 12:50:55;;;;;;;10.60;7.83;;;10.60;96.30;;;;;;4995193;28;20194;-72
2021/03/01 12:53:21;;;;;;;11.77;7.87;;;11.00;96.00;;;;;;4994198;28;20173;-72
2021/03/01 12:55:46;;;;;;;8.53;7.17;;;11.00;95.90;;;;;;4994721;28;20174;-72
2021/03/01 12:58:12;;;;;;;8.57;7.17;;;11.10;95.20;;;;;;4993831;28;20545;-72
2021/03/01 13:00:38;;;;;;;9.17;7.10;;;10.90;94.30;;;;;;4993720;28;20693;-72
2021/03/01 13:03:04;;;;;;;12.00;7.83;;;10.60;95.00;;;;;;4993365;28;20621;-72
2021/03/01 13:05:29;;;;;;;10.00;7.90;;;10.80;96.30;;;;;;4994518;28;20492;-72
2021/03/01 13:07:55;;;;;;;10.80;7.73;;;10.80;93.70;;;;;;4994251;28;20457;-72
2021/03/01 13:10:21;;;;;;;7.47;6.10;;;10.70;96.30;;;;;;4994988;28;20519;-72
2021/03/01 13:12:46;;;;;;;8.07;7.20;;;10.90;96.30;;;;;;4994638;28;20186;-72
2021/03/01 13:15:12;;;;;;;8.80;6.97;;;10.80;94.40;;;;;;4994733;28;20628;-72
2021/03/01 13:17:37;;;;;;;10.17;7.60;;;10.90;96.30;;;;;;4994022;28;20186;-72
2021/03/01 13:20:05;;;;;;;11.37;7.00;;;10.80;95.20;;;;;;4998396;28;20436;-72
2021/03/01 13:22:30;;;;;;;10.17;6.50;;;10.90;96.30;;;;;;5008820;28;20200;-72
2021/03/01 13:24:56;;;;;;;8.77;6.83;;;10.80;96.00;;;;;;5011755;28;20941;-72
2021/03/01 13:27:22;;;;;;;8.63;7.30;;;11.00;96.30;;;;;;4993433;28;20695;-72
2021/03/01 13:29:47;;;;;;;10.70;7.30;;;10.90;96.30;;;;;;5019437;22;20275;-70
2021/03/01 13:32:13;;;;;;;11.17;7.20;;;10.70;96.30;;;;;;4994659;28;20640;-69
2021/03/01 13:34:38;;;;;;;8.70;7.17;;;10.80;96.30;;;;;;4994604;28;20249;-69
2021/03/01 13:37:04;;;;;;;9.33;7.47;;;11.00;96.30;;;;;;4993966;28;20182;-72
2021/03/01 13:39:31;;;;;;;9.83;8.20;;;11.10;96.30;;;;;;4991894;28;20209;-72
2021/03/01 13:41:58;;;;;;;9.70;7.80;;;11.30;96.30;;;;;;4975063;28;20175;-72
2021/03/01 13:44:23;;;;;;;11.57;9.20;;;11.50;95.60;;;;;;4973701;28;20465;-72
2021/03/01 13:46:49;;;;;;;15.13;11.13;;;11.60;94.80;;;;;;4974912;28;20773;-72
2021/03/01 13:49:14;;;;;;;13.63;10.47;;;11.20;95.10;;;;;;4974032;28;20249;-72
2021/03/01 13:51:40;;;;;;;16.00;10.30;;;11.30;96.20;;;;;;4974877;28;20167;-72
2021/03/01 13:54:06;;;;;;;16.90;11.97;;;11.50;95.70;;;;;;4974811;28;20174;-72
2021/03/01 13:56:31;;;;;;;15.87;11.67;;;11.40;96.00;;;;;;4974674;28;20627;-72
2021/03/01 13:58:57;;;;;;;16.00;12.03;;;11.50;94.90;;;;;;4974171;28;20175;-72
2021/03/01 14:01:22;;;;;;;15.87;11.80;;;11.80;95.20;;;;;;4974322;28;20222;-72
2021/03/01 14:03:49;;;;;;;12.00;10.70;;;11.90;95.60;;;;;;4974739;28;20693;-72
2021/03/01 14:06:14;;;;;;;17.33;12.87;;;12.10;94.70;;;;;;4973408;28;20550;-72
2021/03/01 14:08:41;;;;;;;17.90;12.87;;;11.90;94.70;;;;;;4972834;28;20429;-72
2021/03/01 14:11:07;;;;;;;17.13;13.00;;;11.70;94.70;;;;;;4974430;28;20187;-72
2021/03/01 14:13:32;;;;;;;21.13;14.33;;;11.90;94.50;;;;;;4974196;28;20417;-72
2021/03/01 14:15:57;;;;;;;22.57;14.40;;;12.00;95.30;;;;;;4974456;28;20210;-72
2021/03/01 14:18:23;;;;;;;20.70;15.10;;;11.80;94.60;;;;;;4973845;28;20178;-72
2021/03/01 14:20:49;;;;;;;19.70;15.50;;;11.90;93.70;;;;;;4976425;28;20198;-72
2021/03/01 14:23:14;;;;;;;24.90;16.33;;;11.70;94.30;;;;;;4980145;28;20187;-72
2021/03/01 14:25:39;;;;;;;20.20;15.70;;;11.40;94.60;;;;;;4980804;28;20201;-72
2021/03/01 14:28:06;;;;;;;19.40;15.13;;;11.30;95.00;;;;;;4976579;28;20206;-72
2021/03/01 14:30:31;;;;;;;21.40;16.00;;;11.40;96.20;;;;;;4973204;28;20827;-72
2021/03/01 14:32:57;;;;;;;22.53;17.47;;;11.50;95.60;;;;;;4973979;28;20185;-72
2021/03/01 14:35:22;;;;;;;22.00;16.20;;;11.50;95.90;;;;;;4974100;28;20190;-72
2021/03/01 14:37:48;;;;;;;24.10;16.97;;;11.50;95.50;;;;;;4973428;28;20520;-72
2021/03/01 14:40:13;;;;;;;21.60;15.20;;;11.20;95.90;;;;;;4972660;28;20198;-72
2021/03/01 14:42:39;;;;;;;22.00;15.33;;;11.20;96.30;;;;;;4972191;28;20178;-72
2021/03/01 14:45:05;;;;;;;19.20;14.27;;;11.10;96.30;;;;;;4973848;28;20210;-72
2021/03/01 14:47:33;;;;;;;20.80;14.80;;;10.90;96.30;;;;;;4973183;28;20178;-72
2021/03/01 14:50:00;;;;;;;23.17;15.90;;;10.80;96.30;;;;;;4974205;28;20508;-72
2021/03/01 14:52:25;;;;;;;23.97;15.70;;;10.70;96.30;;;;;;4973658;28;20422;-72
2021/03/01 14:54:51;;;;;;;21.60;14.27;;;10.80;96.30;;;;;;4973822;28;20417;-72
2021/03/01 14:57:16;;;;;;;22.27;14.40;;;10.90;96.30;;;;;;4972878;28;20178;-72
2021/03/01 14:59:42;;;;;;;21.60;15.40;;;10.80;96.30;;;;;;4973454;28;20744;-72
2021/03/01 15:02:07;;;;;;;22.57;13.10;;;10.70;96.30;;;;;;4973652;28;20178;-72
2021/03/01 15:04:33;;;;;;;18.10;12.70;;;10.60;96.30;;;;;;4973271;28;20202;-72
2021/03/01 15:06:58;;;;;;;21.23;13.17;;;10.50;96.30;;;;;;4972833;28;20197;-72
2021/03/01 15:09:24;;;;;;;21.37;13.30;;;10.30;96.30;;;;;;4973458;28;20225;-72
2021/03/01 15:11:49;;;;;;;17.67;12.40;;;10.10;96.30;;;;;;4972485;28;20182;-72
2021/03/01 15:14:15;;;;;;;20.17;13.13;;;10.00;96.30;;;;;;4973149;28;20174;-71
2021/03/01 15:16:40;;;;;;;18.93;12.90;;;9.90;96.30;;;;;;4973188;28;20236;-72
2021/03/01 15:19:05;;;;;;;20.60;11.70;;;9.80;96.30;;;;;;4972811;28;20247;-72
2021/03/01 15:21:31;;;;;;;15.43;10.87;;;9.80;96.30;;;;;;4973224;28;20666;-72
2021/03/01 15:23:57;;;;;;;21.93;13.60;;;9.70;96.30;;;;;;4973068;28;20556;-72
2021/03/01 15:26:22;;;;;;;18.67;12.93;;;9.60;96.30;;;;;;4973350;28;20182;-72
2021/03/01 15:28:48;;;;;;;19.63;12.83;;;9.50;96.30;;;;;;4972730;28;20174;-72
2021/03/01 15:31:13;;;;;;;18.43;12.83;;;9.30;96.30;;;;;;4973156;28;20214;-72
2021/03/01 15:33:39;;;;;;;20.40;12.27;;;9.20;96.30;;;;;;4973220;28;20200;-72
2021/03/01 15:36:06;;;;;;;18.93;12.47;;;9.10;96.30;;;;;;4973135;28;20186;-72
2021/03/01 15:38:32;;;;;;;17.57;12.30;;;8.90;96.30;;;;;;4972307;28;20186;-72
2021/03/01 15:40:57;;;;;;;18.80;12.37;;;8.90;96.30;;;;;;4973159;28;20437;-72
2021/03/01 15:43:22;;;;;;;16.30;10.23;;;8.80;96.30;;;;;;4976154;28;20258;-72
2021/03/01 15:45:48;;;;;;;16.00;10.30;;;8.60;96.30;;;;;;4976914;28;20638;-72
2021/03/01 15:48:13;;;;;;;17.50;10.77;;;8.60;96.30;;;;;;4976374;28;20178;-72
2021/03/01 15:50:39;;;;;;;17.83;10.70;;;8.50;96.30;;;;;;4976869;28;20194;-72
2021/03/01 15:53:05;;;;;;;13.60;9.27;;;8.40;96.30;;;;;;4977608;28;20220;-72
2021/03/01 15:55:32;;;;;;;16.63;10.60;;;8.30;96.30;;;;;;4977426;28;20174;-72
2021/03/01 15:57:58;;;;;;;14.20;9.37;;;8.10;96.30;;;;;;4976602;28;20174;-72
2021/03/01 16:00:24;;;;;;;15.00;10.40;;;8.00;96.30;;;;;;4976995;28;20440;-72
2021/03/01 16:02:50;;;;;;;13.60;9.47;;;7.70;96.30;;;;;;4976830;28;20413;-71
2021/03/01 16:05:15;;;;;;;12.43;8.57;;;7.50;96.30;;;;;;4977172;28;20244;-72
2021/03/01 16:07:41;;;;;;;11.20;8.43;;;7.40;96.30;;;;;;4975200;28;20179;-73
2021/03/01 16:10:07;;;;;;;13.67;9.10;;;7.20;96.30;;;;;;4976601;28;20190;-72
2021/03/01 16:12:33;;;;;;;14.00;8.00;;;7.10;96.30;;;;;;4976715;28;20174;-72
2021/03/01 16:14:58;;;;;;;9.90;7.30;;;7.00;96.30;;;;;;4976778;28;20440;-72
2021/03/01 16:17:24;;;;;;;10.80;8.80;;;6.70;96.30;;;;;;4976199;28;20178;-72
2021/03/01 16:19:49;;;;;;;12.67;8.90;;;6.60;96.30;;;;;;4975889;28;20745;-72
2021/03/01 16:22:15;;;;;;;13.17;9.50;;;6.40;96.30;;;;;;4975360;28;20186;-72
2021/03/01 16:24:40;;;;;;;12.67;8.37;;;6.30;96.30;;;;;;4976578;28;20210;-72
2021/03/01 16:27:06;;;;;;;12.53;8.17;;;6.20;96.30;;;;;;4976105;28;20170;-72
2021/03/01 16:29:31;;;;;;;10.03;7.07;;;6.00;96.30;;;;;;4976258;28;20178;-72
2021/03/01 16:31:57;;;;;;;10.33;8.13;;;5.70;96.30;;;;;;4976580;28;20246;-72
2021/03/01 16:34:22;;;;;;;8.77;6.30;;;5.40;96.30;;;;;;4976351;28;20170;-72
2021/03/01 16:36:48;;;;;;;11.60;7.10;;;5.30;96.30;;;;;;4976409;28;20688;-72
2021/03/01 16:39:15;;;;;;;11.60;7.73;;;5.10;96.30;;;;;;4975435;28;20182;-72
2021/03/01 16:41:41;;;;;;;9.53;6.77;;;4.90;96.30;;;;;;4976445;28;20177;-72
2021/03/01 16:44:08;;;;;;;10.77;6.97;;;4.90;96.30;;;;;;4976283;28;20460;-72
2021/03/01 16:46:42;;;;;;;9.67;6.50;;;4.80;96.30;;;;;;4976200;28;20956;-72